Latest Coastal Weather Observations for Kingscote

IDS60701

Issued at 10:41 pm CDT Saturday 20 December 2014 (issued every 10 minutes, with the page automatically refreshed every 10 minutes)

About coastal observations | Map of coastal stations | Coastal observations for SA | Marine services | Other Formats
Station Details ID: 022841 Name: KINGSCOTE AERO Lat: -35.71 Lon: 137.52 Height: 6.23 m
Data from the previous 72 hours. | See also: Recent months at Kingscote
Date/Time
CDT
Temp

°C
Wind Pressure Rain
since 9am
mm
Weather Cloud Vis
km
Sea
Height
m
Swell
Dir
 
Speed
knots
Gust
knots
hPa Trend Height
m
Period
s
Dir
20/10:30pm 14.4 SSE 4 5 1014.9 - 0.0 - - 10 - - - -
20/10:00pm 15.2 SSE 5 6 1015.1 - 0.0 - - 10 - - - -
20/09:30pm 15.8 SE 7 8 1014.9 - 0.0 - - 10 - - - -
20/09:00pm 16.5 SE 8 11 1015.1 - 0.0 - - 10 - - - -
20/08:30pm 17.3 SE 8 11 1015.5 - 0.0 - - 10 - - - -
20/08:00pm 18.4 SE 10 14 1015.4 - 0.0 - - 10 - - - -
20/07:30pm 19.3 SE 11 14 1015.3 - 0.0 - - 10 - - - -
20/07:00pm 20.3 SE 14 18 1014.9 - 0.0 - - 10 - - - -
20/06:30pm 21.8 SE 13 17 1014.6 - 0.0 - - 10 - - - -
20/06:00pm 22.1 SE 11 16 1014.8 - 0.0 - - 10 - - - -
20/05:30pm 22.9 SE 9 13 1015.2 - 0.0 - - 10 - - - -
20/05:00pm 22.8 SE 11 16 1015.3 - 0.0 - - 10 - - - -
20/04:30pm 23.6 SE 11 16 1015.3 - 0.0 - - 10 - - - -
20/04:00pm 24.1 E 11 17 1015.5 - 0.0 - - 10 - - - -
20/03:30pm 24.1 E 11 16 1015.9 - 0.0 - - 10 - - - -
20/03:00pm 23.4 E 11 16 1016.3 - 0.0 - - 10 - - - -
20/02:30pm 22.9 E 9 15 1016.8 - 0.0 - - 10 - - - -
20/02:00pm 23.4 ENE 10 14 1017.4 - 0.0 - - 10 - - - -
20/01:30pm 22.7 ENE 10 15 1017.8 - 0.0 - - 10 - - - -
20/01:00pm 22.2 E 10 15 1018.0 - 0.0 - - 10 - - - -
20/12:30pm 22.5 ENE 10 15 1018.5 - 0.0 - - 10 - - - -
20/12:00pm 21.5 E 10 15 1018.8 - 0.0 - - 10 - - - -
20/11:30am 21.2 E 8 13 1019.0 - 0.0 - - 10 - - - -
20/11:00am 21.2 E 7 15 1019.2 - 0.0 - - 10 - - - -
20/10:30am 20.8 NE 7 11 1019.6 - 0.0 - - 10 - - - -
20/10:00am 20.6 E 7 11 1019.8 - 0.0 - - 10 - - - -
20/09:30am 19.4 ENE 7 11 1020.2 - 0.0 - - 10 - - - -
20/09:00am 18.9 ENE 7 11 1020.2 - 0.0 - - 10 - - - -
20/08:30am 18.0 E 7 11 1020.0 - 0.0 - - 10 - - - -
20/08:00am 16.6 CALM 0 0 1019.8 - 0.0 - - 10 - - - -
20/07:30am 12.6 CALM 0 0 1019.7 - 0.0 - - 10 - - - -
20/07:00am 9.9 CALM 0 0 1019.7 - 0.0 - - 10 - - - -
20/06:30am 8.3 CALM 0 0 1019.6 - 0.0 - - 10 - - - -
20/06:00am 7.8 CALM 0 0 1019.4 - 0.0 - - 10 - - - -
20/05:30am 8.0 CALM 0 0 1019.1 - 0.0 - - 10 - - - -
20/05:00am 7.9 CALM 0 0 1018.9 - 0.0 - - 10 - - - -
20/04:30am 8.0 CALM 0 0 1018.7 - 0.0 - - 10 - - - -
20/04:00am 8.6 CALM 0 0 1018.6 - 0.0 - - 10 - - - -
20/03:30am 9.4 CALM 0 0 1018.7 - 0.0 - - 10 - - - -
20/03:00am 9.9 CALM 0 0 1018.8 - 0.0 - - 10 - - - -
20/02:30am 10.8 CALM 0 0 1019.1 - 0.0 - Partly cloudy 10 - - - -
20/02:00am 11.6 CALM 0 0 1019.7 - 0.0 - Cloudy 10 - - - -
20/01:30am 11.8 CALM 0 0 1020.2 - 0.0 - Cloudy 10 - - - -
20/01:00am 11.3 CALM 0 0 1020.6 - 0.0 - Cloudy 10 - - - -
20/12:30am 10.9 CALM 0 0 1020.9 - 0.0 - Partly cloudy 10 - - - -
20/12:00am 10.3 CALM 0 0 1021.0 - 0.0 - - 10 - - - -
 
Date/Time
CDT
Temp

°C
Wind Pressure Rain
since 9am
mm
Weather Cloud Vis
km
Sea
Height
m
Swell
Dir
 
Speed
knots
Gust
knots
hPa Trend Height
m
Period
s
Dir
19/11:30pm 11.7 CALM 0 0 1021.2 - 0.0 - - 10 - - - -
19/11:00pm 12.2 S 3 3 1021.5 - 0.0 - - 10 - - - -
19/10:30pm 13.5 SSE 4 5 1021.5 - 0.0 - - 10 - - - -
19/10:00pm 13.7 S 4 5 1021.5 - 0.0 - - 10 - - - -
19/09:30pm 14.7 S 7 9 1021.6 - 0.0 - - 10 - - - -
19/09:00pm 15.5 S 7 10 1021.4 - 0.0 - - 10 - - - -
19/08:30pm 16.4 S 10 13 1021.2 - 0.0 - - 10 - - - -
19/08:00pm 17.3 SSW 13 16 1021.0 - 0.0 - - 10 - - - -
19/07:30pm 18.1 S 14 20 1021.0 - 0.0 - Partly cloudy 10 - - - -
19/07:00pm 19.0 S 14 19 1020.8 - 0.0 - Cloudy 10 - - - -
19/06:30pm 19.5 S 15 20 1020.5 - 0.0 - Cloudy 10 - - - -
19/06:00pm 20.1 S 11 17 1020.4 - 0.0 - Cloudy 10 - - - -
19/05:30pm 19.8 ESE 10 15 1020.3 - 0.0 - Cloudy 10 - - - -
19/05:00pm 21.0 E 10 14 1020.3 - 0.0 - Cloudy 10 - - - -
19/04:30pm 20.5 E 11 15 1020.4 - 0.0 - Cloudy 10 - - - -
19/04:00pm 20.4 ENE 11 17 1020.5 - 0.0 - Partly cloudy 10 - - - -
19/03:30pm 21.1 ENE 10 18 1020.6 - 0.0 - Partly cloudy 10 - - - -
19/03:00pm 22.1 ENE 8 14 1020.6 - 0.0 - Mostly clear 10 - - - -
19/02:30pm 22.0 NNE 8 13 1020.6 - 0.0 - Partly cloudy 10 - - - -
19/02:00pm 20.6 NE 9 15 1020.7 - 0.0 - Partly cloudy 10 - - - -
19/01:30pm 21.0 NNE 10 15 1020.6 - 0.0 - Partly cloudy 10 - - - -
19/01:00pm 21.4 NNE 7 13 1020.8 - 0.0 - Partly cloudy 10 - - - -
19/12:30pm 22.3 W 5 9 1021.0 - 0.0 - Partly cloudy 10 - - - -
19/12:00pm 21.2 SW 6 13 1021.2 - 0.0 - Partly cloudy 10 - - - -
19/11:30am 19.7 S 7 11 1021.3 - 0.0 - Partly cloudy 10 - - - -
19/11:00am 19.3 SSW 8 13 1021.3 - 0.0 - Partly cloudy 10 - - - -
19/10:30am 20.1 SSE 5 8 1021.3 - 0.0 - Partly cloudy 10 - - - -
19/10:00am 19.3 SSE 3 6 1021.1 - 0.0 - Partly cloudy 10 - - - -
19/09:30am 17.3 SW 6 8 1020.9 - 0.0 - - 10 - - - -
19/09:00am 17.1 SSW 7 11 1020.5 - 0.0 - Mostly clear 10 - - - -
19/08:30am 17.4 SSE 5 9 1020.2 - 0.0 - - 10 - - - -
19/08:00am 15.3 WSW 4 6 1020.1 - 0.0 - - 10 - - - -
19/07:30am 12.4 W 3 4 1019.7 - 0.0 - - 10 - - - -
19/07:00am 9.5 CALM 0 0 1019.3 - 0.0 - - 10 - - - -
19/06:30am 7.7 CALM 0 0 1019.0 - 0.0 - - 10 - - - -
19/06:00am 7.8 CALM 0 0 1018.9 - 0.0 - - 10 - - - -
19/05:30am 7.8 CALM 0 0 1018.7 - 0.0 - - 10 - - - -
19/05:00am 7.9 W 1 3 1018.7 - 0.0 - - 10 - - - -
19/04:30am 8.0 W 4 5 1018.5 - 0.0 - - 10 - - - -
19/04:00am 8.7 W 1 3 1018.4 - 0.0 - - 10 - - - -
19/03:30am 8.6 W 4 4 1018.4 - 0.0 - - 10 - - - -
19/03:00am 9.0 WSW 3 4 1018.3 - 0.0 - - 10 - - - -
19/02:30am 9.1 WSW 6 7 1018.5 - 0.0 - - 10 - - - -
19/02:00am 9.7 WSW 5 6 1018.4 - 0.0 - - 10 - - - -
19/01:30am 11.1 WSW 5 6 1018.6 - 0.0 - Partly cloudy 10 - - - -
19/01:00am 11.1 W 5 6 1018.7 - 0.0 - Partly cloudy 10 - - - -
19/12:30am 10.5 W 5 6 1018.6 - 0.0 - Partly cloudy 10 - - - -
19/12:00am 10.8 W 6 7 1018.4 - 0.0 - - 10 - - - -
 
Date/Time
CDT
Temp

°C
Wind Pressure Rain
since 9am
mm
Weather Cloud Vis
km
Sea
Height
m
Swell
Dir
 
Speed
knots
Gust
knots
hPa Trend Height
m
Period
s
Dir
18/11:30pm 11.5 W 5 6 1018.2 - 0.0 - Partly cloudy 10 - - - -
18/11:00pm 10.9 W 6 6 1018.2 - 0.0 - Partly cloudy 10 - - - -
18/10:30pm 11.9 WSW 5 5 1018.0 - 0.0 - - 10 - - - -
18/10:00pm 12.2 WSW 6 6 1018.0 - 0.0 - - 10 - - - -
18/09:30pm 13.1 SW 6 7 1017.6 - 0.0 - - 10 - - - -
18/09:00pm 14.8 SW 10 14 1017.3 - 0.0 - - 10 - - - -
18/08:30pm 15.9 SSW 9 14 1016.9 - 0.0 - Partly cloudy 10 - - - -
18/08:00pm 16.3 SW 13 17 1016.6 - 0.0 - - 10 - - - -
18/07:30pm 17.2 SSW 13 18 1016.2 - 0.0 - Partly cloudy 10 - - - -
18/07:00pm 18.2 SSW 16 22 1015.7 - 0.0 - Partly cloudy 10 - - - -
18/06:30pm 18.6 SSW 14 20 1015.1 - 0.0 - Partly cloudy 10 - - - -
18/06:00pm 18.9 SSW 17 23 1014.8 - 0.0 - Mostly clear 10 - - - -
18/05:30pm 20.0 SSW 18 23 1014.4 - 0.0 - - 10 - - - -
18/05:00pm 21.2 SSW 18 25 1014.1 - 0.0 - Partly cloudy 10 - - - -
18/04:30pm 19.6 SSW 18 23 1013.8 - 0.0 - Partly cloudy 10 - - - -
18/04:00pm 21.6 SSW 19 26 1013.6 - 0.0 - Partly cloudy 10 - - - -
18/03:30pm 21.5 SW 19 25 1013.1 - 0.0 - Partly cloudy 10 - - - -
18/03:19pm 22.4 SSW 18 32 1013.0 - 0.0 - Partly cloudy 10 - - - -
18/03:00pm 20.8 SW 17 25 1013.0 - 0.0 - Partly cloudy 10 - - - -
18/02:30pm 21.7 SSW 19 26 1012.8 - 0.0 - Partly cloudy 10 - - - -
18/02:00pm 20.3 SSW 19 27 1012.5 - 0.0 - Partly cloudy 10 - - - -
18/01:59pm 20.6 SSW 19 27 1012.6 - 0.0 - Partly cloudy 10 - - - -
18/01:30pm 21.6 SW 18 26 1012.3 - 0.0 - Partly cloudy 10 - - - -
18/01:24pm 21.9 SW 19 26 1012.2 - 0.0 - Partly cloudy 10 - - - -
18/01:04pm 21.6 SSW 17 27 1012.3 - 0.0 - Partly cloudy 10 - - - -
18/01:00pm 21.2 SSW 18 26 1012.2 - 0.0 - Partly cloudy 10 - - - -
18/12:54pm 20.4 SW 17 26 1012.2 - 0.0 - Partly cloudy 10 - - - -
18/12:30pm 20.7 SW 18 25 1012.0 - 0.0 - Partly cloudy 10 - - - -
18/12:00pm 21.2 SW 17 25 1011.8 - 0.0 - Cloudy 10 - - - -
18/11:44am 20.7 SW 17 27 1011.9 - 0.0 - Partly cloudy 10 - - - -
18/11:30am 20.9 SW 19 28 1011.5 - 0.0 - Partly cloudy 10 - - - -
18/11:13am 20.9 SW 19 29 1011.6 - 0.0 - Partly cloudy 10 - - - -
18/11:00am 21.3 SW 20 29 1011.4 - 0.0 - Partly cloudy 10 - - - -
18/10:30am 20.6 WSW 20 26 1011.1 - 0.0 - Partly cloudy 10 - - - -
18/10:01am 16.7 SW 22 32 1011.2 - 0.0 - Partly cloudy 10 - - - -
18/10:00am 16.0 SW 23 32 1011.1 - 0.0 - Partly cloudy 10 - - - -
18/09:47am 18.1 WSW 17 32 1011.0 - 0.0 - Partly cloudy 10 - - - -
18/09:30am 20.7 WSW 14 19 1010.3 - 0.0 - Partly cloudy 10 - - - -
18/09:05am 19.4 W 15 25 1010.4 - 0.0 - Partly cloudy 10 - - - -
18/09:00am 20.2 W 17 25 1010.4 - 0.0 - Mostly clear 10 - - - -
18/08:30am 18.5 WNW 12 16 1010.0 - 0.0 - Partly cloudy 10 - - - -
18/08:00am 16.4 W 8 12 1009.7 - 0.0 - Partly cloudy 10 - - - -
18/07:36am 15.3 WNW 8 11 1009.7 - 0.0 - Partly cloudy 10 - - - -
18/07:30am 15.2 W 10 16 1009.7 - 0.0 - Partly cloudy 8 - - - -
18/07:19am 15.6 W 12 19 1009.6 - 0.0 - Partly cloudy 5 - - - -
18/07:00am 16.5 W 9 13 1009.2 - 0.0 - Partly cloudy 10 - - - -
18/06:30am 14.5 W 6 9 1008.9 - 0.0 - Partly cloudy 10 - - - -
18/06:00am 11.7 W 4 5 1008.7 - 0.0 - Cloudy 10 - - - -
18/05:30am 12.0 W 3 5 1008.5 - 0.0 - Cloudy 10 - - - -
18/05:00am 12.7 WNW 7 9 1008.1 - 0.0 - Partly cloudy 10 - - - -
18/04:30am 10.4 CALM 0 0 1008.0 - 0.0 - - 10 - - - -
18/04:00am 8.6 CALM 0 0 1007.8 - 0.0 - - 10 - - - -
18/03:30am 8.8 CALM 0 0 1007.7 - 0.0 - - 10 - - - -
18/03:00am 9.1 CALM 0 0 1007.8 - 0.0 - - 10 - - - -
18/02:30am 9.4 CALM 0 0 1008.0 - 0.0 - - 10 - - - -
18/02:00am 8.3 CALM 0 0 1008.3 - 0.0 - - 10 - - - -
18/01:30am 9.6 CALM 0 0 1008.1 - 0.0 - - 10 - - - -
18/01:00am 10.0 SW 3 4 1008.5 - 0.0 - - 10 - - - -
18/12:30am 11.0 WNW 3 4 1008.6 - 0.0 - - 10 - - - -
18/12:00am 12.6 NW 5 6 1008.8 - 0.0 - - 10 - - - -
 
Date/Time
CDT
Temp

°C
Wind Pressure Rain
since 9am
mm
Weather Cloud Vis
km
Sea
Height
m
Swell
Dir
 
Speed
knots
Gust
knots
hPa Trend Height
m
Period
s
Dir
17/11:30pm 12.6 NW 5 6 1009.1 - 0.0 - - 10 - - - -
17/11:00pm 13.3 WNW 7 8 1009.1 - 0.0 - - 10 - - - -

Other Formats:

Comma delimited format used in spreadsheet applications
http://www.bom.gov.au/fwo/IDS60701/IDS60701.95807.axf

JavaScript Object Notation format (JSON) in row-major order
http://www.bom.gov.au/fwo/IDS60701/IDS60701.95807.json